Ana Sayfa
METAR-TAF:

METAR-TAF

Havaalanları :

Central Park

New York, New York, Amerika Birleşik Devletleri

Enlem: 40-47-00N, Boylam: 073-58-00W, yükseklik: 47 m

Güncel hava durumu gözlemi

Rapor saat 00:51 UTC de 9 dakika önce yapıldı.
Rüzgar değişken yönden 4 kt
Sıcaklık 6°C
Nem 49%
Basınç 1007 hPa
Görüş mesafesi: 16.1 km
5500 ft yükseklikte çok bulutlu

METAR: KNYC 180051Z AUTO VRB04KT 10SM OVC055 06/M04 A2974 RMK AO2 SLP062 T00611044 $

Saat: 20:00 (01:00 UTC)


TAF: eksik

4.000'den fazla havaalanı için hava durumu gözlemleri ve tahminleri (METAR ve TAF raporları).

Kullanılabilir istasyonlar harita üzerinde sarı ve kırmızı noktalarla gösterilir.

İstasyonun adını görmek için fareyi noktanın üzerinde gezdirin.

Sonrasında hava gözlem ve tahminlerini görmek için tıklayın.

Haritayı değiştirmek için: yaklaştırmak için siyah artı işaretli yeşil düğmeye ve uzaklaştırmak için de eksi işaretli düğmeye hızla tıklayın; bitişik haritalar için yeşil okları kullanın.


METAR-TAF: